Wetterdaten: Woche 16.09.13 - 22.09.13 (KW38)
Datum Zeit Temperatur Luftfeuchte Luftdruck Niederschlag Windrichtung Sonnenschein Solar Wind
16.09.2013 00:00 13,0 C 97 % 1008,8 hPa 0,2 l/m W 0,00 h 0 W/m 13,6 km/h (3 Bft)
16.09.2013 01:00 12,6 C 97 % 1008,4 hPa 0,8 l/m W 0,00 h 0 W/m 14,6 km/h (3 Bft)
16.09.2013 02:00 12,2 C 97 % 1008,0 hPa 0,0 l/m W-SW 0,00 h 0 W/m 14,2 km/h (3 Bft)
16.09.2013 03:00 11,9 C 97 % 1008,0 hPa 0,0 l/m W-SW 0,00 h 0 W/m 20,1 km/h (4 Bft)
16.09.2013 04:00 11,5 C 97 % 1007,8 hPa 0,0 l/m W-SW 0,00 h 0 W/m 16,4 km/h (3 Bft)
16.09.2013 05:00 11,1 C 96 % 1007,2 hPa 0,0 l/m SW 0,00 h 0 W/m 11,4 km/h (2 Bft)
16.09.2013 06:00 10,6 C 95 % 1006,8 hPa 0,2 l/m W-SW 0,00 h 0 W/m 14,9 km/h (3 Bft)
16.09.2013 07:00 10,3 C 94 % 1006,5 hPa 0,0 l/m W-SW 0,00 h 9 W/m 14,5 km/h (3 Bft)
16.09.2013 08:00 10,6 C 92 % 1005,9 hPa 0,0 l/m W-SW 0,00 h 32 W/m 23,7 km/h (4 Bft)
16.09.2013 09:00 11,0 C 92 % 1005,8 hPa 0,6 l/m W-SW 0,00 h 45 W/m 20,2 km/h (4 Bft)
16.09.2013 10:00 11,1 C 95 % 1005,7 hPa 0,0 l/m W-SW 0,00 h 84 W/m 15,7 km/h (3 Bft)
16.09.2013 11:00 12,0 C 94 % 1005,6 hPa 0,0 l/m W-SW 0,00 h 133 W/m 19,6 km/h (3 Bft)
16.09.2013 12:00 11,9 C 91 % 1004,9 hPa 1,0 l/m W-SW 0,00 h 72 W/m 20,4 km/h (4 Bft)
16.09.2013 13:00 11,5 C 94 % 1004,5 hPa 0,0 l/m W-SW 0,00 h 69 W/m 23,5 km/h (4 Bft)
16.09.2013 14:00 11,6 C 95 % 1003,8 hPa 0,0 l/m W 0,00 h 108 W/m 22,5 km/h (4 Bft)
16.09.2013 15:00 11,8 C 93 % 1003,2 hPa 0,2 l/m W-SW 0,00 h 48 W/m 22,5 km/h (4 Bft)
16.09.2013 16:00 11,7 C 95 % 1002,3 hPa 0,2 l/m SW 0,00 h 61 W/m 21,6 km/h (4 Bft)
16.09.2013 17:00 11,8 C 95 % 1001,9 hPa 0,4 l/m W-SW 0,00 h 43 W/m 18,4 km/h (3 Bft)
16.09.2013 18:00 11,6 C 96 % 1001,5 hPa 0,6 l/m W-SW 0,00 h 27 W/m 24,7 km/h (4 Bft)
16.09.2013 19:00 11,3 C 96 % 1001,4 hPa 0,0 l/m W-SW 0,00 h 8 W/m 23,7 km/h (4 Bft)
16.09.2013 20:00 11,2 C 96 % 1001,4 hPa 0,0 l/m W-SW 0,00 h 0 W/m 21,4 km/h (4 Bft)
16.09.2013 21:00 10,3 C 95 % 1002,0 hPa 5,4 l/m W-NW 0,00 h 0 W/m 16,8 km/h (3 Bft)
16.09.2013 22:00 9,0 C 95 % 1002,3 hPa 2,0 l/m W-NW 0,00 h 0 W/m 6,8 km/h (2 Bft)
16.09.2013 23:00 8,7 C 96 % 1003,1 hPa 0,4 l/m W-NW 0,00 h 0 W/m 8,4 km/h (2 Bft)
17.09.2013 00:00 8,3 C 96 % 1004,1 hPa 0,0 l/m W-SW 0,00 h 0 W/m 8,9 km/h (2 Bft)
17.09.2013 01:00 7,9 C 96 % 1004,5 hPa 0,0 l/m W-NW 0,00 h 0 W/m 10,2 km/h (2 Bft)
17.09.2013 02:00 7,4 C 95 % 1004,7 hPa 0,8 l/m W-NW 0,00 h 0 W/m 10,6 km/h (2 Bft)
17.09.2013 03:00 6,8 C 95 % 1005,1 hPa 0,0 l/m W 0,00 h 0 W/m 10,3 km/h (2 Bft)
17.09.2013 04:00 6,3 C 94 % 1005,5 hPa 0,0 l/m W 0,00 h 0 W/m 9,4 km/h (2 Bft)
17.09.2013 05:00 5,9 C 95 % 1005,7 hPa 0,0 l/m W 0,00 h 0 W/m 3,9 km/h (1 Bft)
17.09.2013 06:00 5,8 C 96 % 1006,1 hPa 0,0 l/m W 0,00 h 0 W/m 4,7 km/h (1 Bft)
17.09.2013 07:00 6,0 C 97 % 1006,8 hPa 0,0 l/m W 0,00 h 21 W/m 6,7 km/h (2 Bft)
17.09.2013 08:00 6,2 C 96 % 1007,5 hPa 0,0 l/m W-SW 0,33 h 100 W/m 11,6 km/h (2 Bft)
17.09.2013 09:00 7,4 C 94 % 1007,8 hPa 0,0 l/m W 0,67 h 290 W/m 18,2 km/h (3 Bft)
17.09.2013 10:00 8,5 C 87 % 1008,2 hPa 0,0 l/m W-NW 0,75 h 458 W/m 24,3 km/h (4 Bft)
17.09.2013 11:00 9,4 C 80 % 1008,3 hPa 0,0 l/m W 0,42 h 403 W/m 27,5 km/h (4 Bft)
17.09.2013 12:00 10,4 C 75 % 1008,0 hPa 0,0 l/m W-SW 0,58 h 534 W/m 25,7 km/h (4 Bft)
17.09.2013 13:00 11,4 C 70 % 1008,1 hPa 0,0 l/m W 0,33 h 356 W/m 25,5 km/h (4 Bft)
17.09.2013 14:00 12,0 C 67 % 1008,0 hPa 0,0 l/m W-SW 0,75 h 588 W/m 29,5 km/h (5 Bft)
17.09.2013 15:00 12,7 C 63 % 1007,6 hPa 0,0 l/m W 0,92 h 512 W/m 29,5 km/h (5 Bft)
17.09.2013 16:00 12,3 C 66 % 1007,2 hPa 0,0 l/m W-SW 0,42 h 284 W/m 23,9 km/h (4 Bft)
17.09.2013 17:00 10,9 C 77 % 1007,2 hPa 0,0 l/m W 0,17 h 111 W/m 17,8 km/h (3 Bft)
17.09.2013 18:00 9,5 C 85 % 1007,2 hPa 1,4 l/m W-SW 0,08 h 52 W/m 14,6 km/h (3 Bft)
17.09.2013 19:00 8,5 C 91 % 1007,1 hPa 0,0 l/m W-SW 0,00 h 9 W/m 14,6 km/h (3 Bft)
17.09.2013 20:00 8,3 C 91 % 1007,1 hPa 0,0 l/m W-SW 0,00 h 0 W/m 13,2 km/h (3 Bft)
17.09.2013 21:00 8,5 C 92 % 1006,7 hPa 0,2 l/m SW 0,00 h 0 W/m 10,9 km/h (2 Bft)
17.09.2013 22:00 8,6 C 94 % 1005,8 hPa 0,0 l/m SW 0,00 h 0 W/m 9,1 km/h (2 Bft)
17.09.2013 23:00 8,5 C 94 % 1005,1 hPa 1,2 l/m SW 0,00 h 0 W/m 14,2 km/h (3 Bft)
18.09.2013 00:00 8,3 C 95 % 1003,6 hPa 0,6 l/m SW 0,00 h 0 W/m 25,1 km/h (4 Bft)
18.09.2013 01:00 8,1 C 96 % 1002,1 hPa 2,2 l/m SW 0,00 h 0 W/m 26,7 km/h (4 Bft)
18.09.2013 02:00 8,1 C 97 % 1001,0 hPa 1,4 l/m W-SW 0,00 h 0 W/m 25,1 km/h (4 Bft)
18.09.2013 03:00 8,7 C 97 % 1000,6 hPa 0,2 l/m W-SW 0,00 h 0 W/m 33,1 km/h (5 Bft)
18.09.2013 04:00 9,6 C 97 % 1000,2 hPa 0,2 l/m SW 0,00 h 0 W/m 35,3 km/h (5 Bft)
18.09.2013 05:00 10,4 C 97 % 999,9 hPa 0,0 l/m W-SW 0,00 h 0 W/m 41,0 km/h (6 Bft)
18.09.2013 06:00 11,1 C 97 % 999,9 hPa 0,2 l/m W-SW 0,00 h 0 W/m 32,3 km/h (5 Bft)
18.09.2013 07:00 11,5 C 97 % 1000,1 hPa 0,0 l/m W-SW 0,00 h 13 W/m 31,8 km/h (5 Bft)
18.09.2013 08:00 12,0 C 97 % 1000,1 hPa 0,2 l/m W-SW 0,00 h 32 W/m 29,6 km/h (5 Bft)
18.09.2013 09:00 12,4 C 97 % 1000,1 hPa 0,8 l/m W 0,00 h 50 W/m 29,6 km/h (5 Bft)
18.09.2013 10:00 12,9 C 97 % 1000,4 hPa 0,4 l/m W 0,00 h 62 W/m 23,6 km/h (4 Bft)
18.09.2013 11:00 13,6 C 97 % 1000,6 hPa 0,0 l/m W-SW 0,00 h 123 W/m 26,3 km/h (4 Bft)
18.09.2013 12:00 14,0 C 95 % 1000,4 hPa 0,4 l/m W-SW 0,00 h 130 W/m 33,0 km/h (5 Bft)
18.09.2013 13:00 14,0 C 94 % 1000,6 hPa 9,2 l/m W 0,00 h 55 W/m 28,8 km/h (5 Bft)
18.09.2013 14:00 13,2 C 96 % 1000,6 hPa 6,0 l/m W 0,00 h 56 W/m 22,4 km/h (4 Bft)
18.09.2013 15:00 13,5 C 97 % 1000,4 hPa 1,4 l/m W-NW 0,00 h 93 W/m 11,8 km/h (2 Bft)
18.09.2013 16:00 13,7 C 97 % 1000,8 hPa 5,0 l/m W-SW 0,58 h 338 W/m 23,1 km/h (4 Bft)
18.09.2013 17:00 14,9 C 93 % 1000,9 hPa 0,0 l/m W 0,33 h 146 W/m 18,6 km/h (3 Bft)
18.09.2013 18:00 14,4 C 87 % 1001,4 hPa 0,0 l/m W 0,33 h 92 W/m 21,3 km/h (4 Bft)
18.09.2013 19:00 13,8 C 87 % 1001,8 hPa 0,0 l/m W 0,00 h 9 W/m 18,6 km/h (3 Bft)
18.09.2013 20:00 13,0 C 87 % 1002,8 hPa 0,0 l/m W 0,00 h 0 W/m 13,2 km/h (3 Bft)
18.09.2013 21:00 12,2 C 90 % 1003,8 hPa 0,0 l/m W-SW 0,00 h 0 W/m 9,4 km/h (2 Bft)
18.09.2013 22:00 12,2 C 91 % 1004,6 hPa 0,0 l/m W-NW 0,00 h 0 W/m 11,4 km/h (2 Bft)
18.09.2013 23:00 12,0 C 93 % 1005,1 hPa 0,0 l/m W-NW 0,00 h 0 W/m 6,3 km/h (2 Bft)
19.09.2013 00:00 11,7 C 94 % 1005,6 hPa 0,0 l/m W-NW 0,00 h 0 W/m 2,7 km/h (1 Bft)
19.09.2013 01:00 11,3 C 92 % 1006,3 hPa 0,0 l/m W-NW 0,00 h 0 W/m 8,3 km/h (2 Bft)
19.09.2013 02:00 11,0 C 93 % 1006,7 hPa 0,0 l/m W-NW 0,00 h 0 W/m 9,1 km/h (2 Bft)
19.09.2013 03:00 10,3 C 92 % 1007,3 hPa 0,0 l/m W-NW 0,00 h 0 W/m 8,2 km/h (2 Bft)
19.09.2013 04:00 9,6 C 92 % 1008,2 hPa 0,0 l/m W-NW 0,00 h 0 W/m 7,4 km/h (2 Bft)
19.09.2013 05:00 9,4 C 92 % 1009,0 hPa 0,0 l/m N-NW 0,00 h 0 W/m 8,4 km/h (2 Bft)
19.09.2013 06:00 8,9 C 90 % 1009,8 hPa 0,0 l/m N-NW 0,00 h 0 W/m 6,5 km/h (2 Bft)
19.09.2013 07:00 8,0 C 90 % 1011,2 hPa 0,0 l/m W-NW 0,00 h 14 W/m 5,6 km/h (1 Bft)
19.09.2013 08:00 7,8 C 91 % 1012,4 hPa 0,0 l/m W-NW 0,67 h 147 W/m 9,7 km/h (2 Bft)
19.09.2013 09:00 9,1 C 84 % 1013,1 hPa 0,2 l/m W-NW 1,00 h 329 W/m 13,6 km/h (3 Bft)
19.09.2013 10:00 10,2 C 79 % 1013,6 hPa 0,0 l/m W 0,83 h 439 W/m 10,7 km/h (2 Bft)
19.09.2013 11:00 11,4 C 75 % 1014,0 hPa 0,0 l/m W-NW 0,42 h 424 W/m 12,0 km/h (2 Bft)
19.09.2013 12:00 12,3 C 72 % 1013,9 hPa 0,0 l/m SW 0,17 h 228 W/m 13,2 km/h (3 Bft)
19.09.2013 13:00 12,2 C 73 % 1014,0 hPa 0,0 l/m W-SW 0,00 h 178 W/m 13,3 km/h (3 Bft)
19.09.2013 14:00 12,6 C 71 % 1014,0 hPa 0,0 l/m W-SW 0,00 h 198 W/m 15,4 km/h (3 Bft)
19.09.2013 15:00 13,5 C 69 % 1013,6 hPa 0,0 l/m SW 0,17 h 225 W/m 15,8 km/h (3 Bft)
19.09.2013 16:00 12,9 C 71 % 1013,5 hPa 0,0 l/m W-SW 0,00 h 150 W/m 15,2 km/h (3 Bft)
19.09.2013 17:00 13,1 C 71 % 1013,4 hPa 0,0 l/m SW 0,08 h 131 W/m 15,4 km/h (3 Bft)
19.09.2013 18:00 12,5 C 75 % 1013,4 hPa 0,0 l/m SW 0,00 h 31 W/m 10,1 km/h (2 Bft)
19.09.2013 19:00 11,7 C 79 % 1013,6 hPa 0,0 l/m SW 0,00 h 6 W/m 8,4 km/h (2 Bft)
19.09.2013 20:00 11,1 C 82 % 1014,1 hPa 0,0 l/m SW 0,00 h 0 W/m 7,6 km/h (2 Bft)
19.09.2013 21:00 10,7 C 85 % 1014,4 hPa 0,0 l/m SW 0,00 h 0 W/m 7,1 km/h (2 Bft)
19.09.2013 22:00 10,4 C 86 % 1014,5 hPa 0,0 l/m SW 0,00 h 0 W/m 7,8 km/h (2 Bft)
19.09.2013 23:00 10,5 C 86 % 1014,5 hPa 0,0 l/m SW 0,00 h 0 W/m 8,2 km/h (2 Bft)
20.09.2013 00:00 10,4 C 87 % 1014,7 hPa 0,0 l/m SW 0,00 h 0 W/m 6,8 km/h (2 Bft)
20.09.2013 01:00 10,3 C 88 % 1014,7 hPa 0,0 l/m SW 0,00 h 0 W/m 3,5 km/h (1 Bft)
20.09.2013 02:00 10,1 C 88 % 1014,5 hPa 0,0 l/m SW 0,00 h 0 W/m 8,7 km/h (2 Bft)
20.09.2013 03:00 9,8 C 90 % 1014,5 hPa 0,0 l/m SW 0,00 h 0 W/m 7,5 km/h (2 Bft)
20.09.2013 04:00 9,7 C 92 % 1014,4 hPa 0,0 l/m SW 0,00 h 0 W/m 9,7 km/h (2 Bft)
20.09.2013 05:00 9,8 C 92 % 1014,4 hPa 0,2 l/m SW 0,00 h 0 W/m 14,6 km/h (3 Bft)
20.09.2013 06:00 9,8 C 90 % 1014,7 hPa 0,0 l/m SW 0,00 h 0 W/m 19,6 km/h (3 Bft)
20.09.2013 07:00 9,7 C 90 % 1014,9 hPa 0,0 l/m SW 0,00 h 14 W/m 15,4 km/h (3 Bft)
20.09.2013 08:00 10,0 C 89 % 1015,4 hPa 0,2 l/m W-SW 0,00 h 31 W/m 18,8 km/h (3 Bft)
20.09.2013 09:00 10,3 C 90 % 1015,7 hPa 0,0 l/m W-SW 0,00 h 82 W/m 16,5 km/h (3 Bft)
20.09.2013 10:00 11,3 C 86 % 1016,1 hPa 0,0 l/m W-SW 0,00 h 134 W/m 21,6 km/h (4 Bft)
20.09.2013 11:00 12,5 C 83 % 1016,5 hPa 0,0 l/m W-SW 0,00 h 218 W/m 23,4 km/h (4 Bft)
20.09.2013 12:00 13,3 C 82 % 1016,8 hPa 0,0 l/m W-SW 0,00 h 176 W/m 20,5 km/h (4 Bft)
20.09.2013 13:00 14,4 C 81 % 1016,6 hPa 0,0 l/m W-SW 0,50 h 513 W/m 19,4 km/h (3 Bft)
20.09.2013 14:00 15,9 C 76 % 1016,5 hPa 0,0 l/m SW 0,58 h 553 W/m 19,2 km/h (3 Bft)
20.09.2013 15:00 16,6 C 71 % 1016,6 hPa 0,0 l/m N 0,00 h 178 W/m 15,8 km/h (3 Bft)
20.09.2013 16:00 15,2 C 76 % 1017,0 hPa 0,0 l/m NW 0,00 h 64 W/m 7,8 km/h (2 Bft)
20.09.2013 17:00 15,0 C 78 % 1017,4 hPa 0,0 l/m N-NW 0,00 h 85 W/m 4,3 km/h (1 Bft)
20.09.2013 18:00 14,9 C 73 % 1018,2 hPa 0,0 l/m NW 0,00 h 30 W/m 7,5 km/h (2 Bft)
20.09.2013 19:00 14,1 C 74 % 1019,0 hPa 0,0 l/m NW 0,00 h 6 W/m 6,4 km/h (2 Bft)
20.09.2013 20:00 13,3 C 76 % 1019,8 hPa 0,0 l/m W-NW 0,00 h 0 W/m 8,4 km/h (2 Bft)
20.09.2013 21:00 12,9 C 79 % 1020,3 hPa 0,0 l/m W-NW 0,00 h 0 W/m 4,8 km/h (1 Bft)
20.09.2013 22:00 12,3 C 82 % 1020,7 hPa 0,0 l/m W-NW 0,00 h 0 W/m 4,8 km/h (1 Bft)
20.09.2013 23:00 11,4 C 84 % 1021,1 hPa 0,0 l/m W-NW 0,00 h 0 W/m 4,4 km/h (1 Bft)
21.09.2013 00:00 11,0 C 86 % 1021,3 hPa 0,0 l/m W-NW 0,00 h 0 W/m 2,0 km/h (1 Bft)
21.09.2013 01:00 9,8 C 88 % 1021,2 hPa 0,0 l/m W-NW 0,00 h 0 W/m 3,7 km/h (1 Bft)
21.09.2013 02:00 8,7 C 90 % 1021,4 hPa 0,0 l/m N 0,00 h 0 W/m 0,3 km/h (0 Bft)
21.09.2013 03:00 7,8 C 91 % 1021,8 hPa 0,0 l/m N 0,00 h 0 W/m 0,0 km/h (0 Bft)
21.09.2013 04:00 7,0 C 91 % 1022,0 hPa 0,0 l/m N 0,00 h 0 W/m 0,0 km/h (0 Bft)
21.09.2013 05:00 6,4 C 92 % 1022,5 hPa 0,0 l/m N 0,00 h 0 W/m 0,0 km/h (0 Bft)
21.09.2013 06:00 5,9 C 92 % 1023,1 hPa 0,0 l/m N 0,00 h 0 W/m 0,0 km/h (0 Bft)
21.09.2013 07:00 5,6 C 93 % 1023,8 hPa 0,0 l/m N 0,00 h 25 W/m 0,0 km/h (0 Bft)
21.09.2013 08:00 7,2 C 96 % 1024,1 hPa 0,0 l/m N 0,42 h 106 W/m 0,0 km/h (0 Bft)
21.09.2013 09:00 9,2 C 97 % 1024,4 hPa 0,0 l/m N 0,08 h 145 W/m 0,7 km/h (0 Bft)
21.09.2013 10:00 11,4 C 93 % 1024,8 hPa 0,0 l/m NO 0,67 h 393 W/m 4,2 km/h (1 Bft)
21.09.2013 11:00 13,9 C 83 % 1024,7 hPa 0,0 l/m NO 0,83 h 534 W/m 7,8 km/h (2 Bft)
21.09.2013 12:00 14,8 C 76 % 1024,8 hPa 0,0 l/m N-NO 0,25 h 351 W/m 5,7 km/h (1 Bft)
21.09.2013 13:00 15,5 C 70 % 1024,8 hPa 0,0 l/m N-NO 0,50 h 415 W/m 6,3 km/h (2 Bft)
21.09.2013 14:00 17,1 C 63 % 1024,7 hPa 0,0 l/m N-NO 0,75 h 565 W/m 7,2 km/h (2 Bft)
21.09.2013 15:00 18,4 C 58 % 1024,7 hPa 0,0 l/m N-NO 1,00 h 590 W/m 7,6 km/h (2 Bft)
21.09.2013 16:00 19,2 C 56 % 1024,6 hPa 0,0 l/m NO 1,00 h 461 W/m 7,8 km/h (2 Bft)
21.09.2013 17:00 19,2 C 56 % 1024,7 hPa 0,0 l/m N 0,92 h 236 W/m 3,2 km/h (1 Bft)
21.09.2013 18:00 18,1 C 67 % 1024,9 hPa 0,0 l/m N 0,25 h 68 W/m 0,0 km/h (0 Bft)
21.09.2013 19:00 15,0 C 74 % 1025,1 hPa 0,0 l/m N 0,08 h 12 W/m 0,1 km/h (0 Bft)
21.09.2013 20:00 12,4 C 83 % 1025,7 hPa 0,0 l/m N 0,00 h 0 W/m 0,5 km/h (0 Bft)
21.09.2013 21:00 10,9 C 86 % 1025,9 hPa 0,0 l/m N 0,00 h 0 W/m 1,3 km/h (1 Bft)
21.09.2013 22:00 10,0 C 89 % 1026,0 hPa 0,0 l/m N 0,00 h 0 W/m 1,3 km/h (1 Bft)
21.09.2013 23:00 9,3 C 91 % 1026,2 hPa 0,0 l/m N 0,00 h 0 W/m 1,7 km/h (1 Bft)
22.09.2013 00:00 8,9 C 92 % 1026,3 hPa 0,0 l/m N-NO 0,00 h 0 W/m 1,5 km/h (1 Bft)
22.09.2013 01:00 8,7 C 94 % 1026,5 hPa 0,0 l/m N-NO 0,00 h 0 W/m 4,3 km/h (1 Bft)
22.09.2013 02:00 8,4 C 94 % 1026,6 hPa 0,0 l/m N 0,00 h 0 W/m 0,5 km/h (0 Bft)
22.09.2013 03:00 7,6 C 94 % 1026,7 hPa 0,0 l/m N 0,00 h 0 W/m 0,5 km/h (0 Bft)
22.09.2013 04:00 6,9 C 94 % 1026,5 hPa 0,0 l/m N 0,00 h 0 W/m 0,0 km/h (0 Bft)
22.09.2013 05:00 6,2 C 94 % 1026,3 hPa 0,0 l/m N 0,00 h 0 W/m 0,0 km/h (0 Bft)
22.09.2013 06:00 5,7 C 94 % 1026,5 hPa 0,0 l/m N 0,00 h 0 W/m 0,0 km/h (0 Bft)
22.09.2013 07:00 5,5 C 95 % 1026,8 hPa 0,2 l/m N 0,00 h 13 W/m 0,3 km/h (0 Bft)
22.09.2013 08:00 6,0 C 96 % 1027,0 hPa 0,0 l/m N 0,00 h 51 W/m 0,4 km/h (0 Bft)
22.09.2013 09:00 7,3 C 97 % 1027,2 hPa 0,0 l/m N 0,25 h 175 W/m 0,4 km/h (0 Bft)
22.09.2013 10:00 9,7 C 98 % 1027,3 hPa 0,0 l/m N-NO 1,00 h 443 W/m 2,8 km/h (1 Bft)
22.09.2013 11:00 13,2 C 91 % 1027,0 hPa 0,0 l/m O-SO 1,00 h 569 W/m 7,4 km/h (2 Bft)
22.09.2013 12:00 16,0 C 76 % 1026,8 hPa 0,0 l/m S-SO 1,00 h 632 W/m 7,2 km/h (2 Bft)
22.09.2013 13:00 17,9 C 69 % 1026,4 hPa 0,0 l/m S 1,00 h 683 W/m 7,5 km/h (2 Bft)
22.09.2013 14:00 18,7 C 67 % 1025,9 hPa 0,0 l/m SW 1,00 h 482 W/m 6,1 km/h (2 Bft)
22.09.2013 15:00 19,5 C 63 % 1025,6 hPa 0,0 l/m W-NW 0,83 h 411 W/m 5,9 km/h (2 Bft)
22.09.2013 16:00 20,4 C 55 % 1025,2 hPa 0,0 l/m NW 1,00 h 448 W/m 5,7 km/h (1 Bft)
22.09.2013 17:00 20,8 C 53 % 1024,9 hPa 0,0 l/m NW 1,00 h 304 W/m 3,3 km/h (1 Bft)
22.09.2013 18:00 20,1 C 63 % 1024,7 hPa 0,0 l/m N 0,58 h 85 W/m 0,4 km/h (0 Bft)
22.09.2013 19:00 16,5 C 72 % 1024,9 hPa 0,0 l/m NW 0,00 h 8 W/m 1,2 km/h (1 Bft)
22.09.2013 20:00 14,0 C 80 % 1025,2 hPa 0,0 l/m N 0,00 h 0 W/m 1,3 km/h (1 Bft)
22.09.2013 21:00 12,5 C 84 % 1025,7 hPa 0,0 l/m N 0,00 h 0 W/m 0,8 km/h (0 Bft)
22.09.2013 22:00 11,4 C 87 % 1026,0 hPa 0,0 l/m N 0,00 h 0 W/m 0,0 km/h (0 Bft)
22.09.2013 23:00 10,6 C 87 % 1026,1 hPa 0,0 l/m N 0,00 h 0 W/m 0,3 km/h (0 Bft)
Min-Datum _ 22.09.13 22.09.13 18.09.13 - - - - 16.09.13
_ Min-Zeit 07:05 17:40 05:20 - - - - 22:50
Minimum _ 5,4 C 50 % 999,7 hPa - - - - 0,0 km/h (0 Bft)
Max-Datum _ 22.09.13 22.09.13 22.09.13 18.09.13 - 22.09.13 17.09.13 18.09.13
_ Max-Zeit 17:10 10:30 09:35 13:40 - 14:40 12:50 05:15
Maximum _ 20,9 C 99 % 1027,5 hPa 9,2 l/m - 0,17 h 881 W/m 46,7 km/h
W-SW (6 Bft)
Durchschnitt _ 11,3 C 87 % 1013,1 hPa #44,6 l/m W-SW #26:30 h 203 W/m 12,1 km/h (2 Bft)